Cerro Gordo, Illinois
Current Conditions -  °F | °C
As of 1:54 PM on Sunday 21 Dec 2014 (Local Time) from KDEC Reporting Station
Overcast Overcast  
Wind Chill: 31°   Ceiling: 2300
Heat Index: 37°   Visibility: 7mi
Dew Point: 30°   Wind: 8mph
Humidity: 76%   Direction: 160°SSE
Pressure: 30.1"   Gusts: NA
Location:  39.89°N, 88.73°W
Report Text: KDEC 211954Z 16007KT 7SM OVC023 03/M01 A3010 RMK AO2 SLP199 T00281011
Loading
Personal Weather Stations






























Interactive Weather Map New forecast layout! Learn more

10-Day Weather Forecast

Advertisements
Track Severe Weather on mobile